createdAt,value
2022-12-05T00:02:12.621Z,3.50
2022-12-05T00:04:44.170Z,3.50
2022-12-05T00:07:14.271Z,3.50
2022-12-05T00:09:44.382Z,3.50
2022-12-05T00:12:14.405Z,3.60
2022-12-05T00:14:44.643Z,3.60
2022-12-05T00:17:14.683Z,3.60
2022-12-05T00:19:44.659Z,3.60
2022-12-05T00:22:14.632Z,3.50
2022-12-05T00:24:44.598Z,3.60
2022-12-05T00:27:12.512Z,3.60
2022-12-05T00:29:42.419Z,3.60
2022-12-05T00:32:10.397Z,3.60
2022-12-05T00:34:39.405Z,3.60
2022-12-05T00:37:07.310Z,3.60
2022-12-05T00:39:37.557Z,3.60
2022-12-05T00:42:04.678Z,3.60
2022-12-05T00:44:34.697Z,3.60
2022-12-05T00:47:04.701Z,3.60
2022-12-05T00:49:34.719Z,3.60
2022-12-05T00:52:01.636Z,3.60
2022-12-05T00:54:28.882Z,3.60
2022-12-05T00:56:58.813Z,3.70
2022-12-05T00:59:26.726Z,3.70
2022-12-05T01:01:54.754Z,3.70
2022-12-05T01:04:26.321Z,3.70
2022-12-05T01:06:59.678Z,3.70
2022-12-05T01:09:29.845Z,3.70
2022-12-05T01:11:58.078Z,3.70
2022-12-05T01:14:26.415Z,3.70
2022-12-05T01:16:57.503Z,3.80
2022-12-05T01:19:29.431Z,3.80
2022-12-05T01:21:58.171Z,3.80
2022-12-05T01:24:30.055Z,3.80
2022-12-05T01:26:58.274Z,3.80
2022-12-05T01:29:25.572Z,3.80
2022-12-05T01:31:53.324Z,3.80
2022-12-05T01:34:25.084Z,3.90
2022-12-05T01:36:52.324Z,3.90
2022-12-05T01:39:22.637Z,3.90
2022-12-05T01:41:52.893Z,3.90
2022-12-05T01:44:22.931Z,3.90
2022-12-05T01:46:55.087Z,3.90
2022-12-05T01:49:27.219Z,3.90
2022-12-05T01:52:09.498Z,3.90
2022-12-05T01:54:39.887Z,3.90
2022-12-05T01:57:11.932Z,3.90
2022-12-05T01:59:41.759Z,3.90
2022-12-05T02:02:10.761Z,3.90
2022-12-05T02:04:56.473Z,3.90
2022-12-05T02:07:25.666Z,3.90
2022-12-05T02:09:53.633Z,4.00
2022-12-05T02:12:22.647Z,4.00
2022-12-05T02:15:07.692Z,4.00
2022-12-05T02:17:49.492Z,4.00
2022-12-05T02:20:40.882Z,4.00
2022-12-05T02:23:10.819Z,4.00
2022-12-05T02:25:50.857Z,4.00
2022-12-05T02:28:29.610Z,4.00
2022-12-05T02:31:31.438Z,4.00
2022-12-05T02:34:07.522Z,4.00
2022-12-05T02:36:55.536Z,4.00
2022-12-05T02:39:49.495Z,4.00
2022-12-05T02:42:29.184Z,4.00
2022-12-05T02:45:24.702Z,4.00
2022-12-05T02:47:56.314Z,4.00
2022-12-05T02:50:30.160Z,4.00
2022-12-05T02:53:11.838Z,4.10
2022-12-05T02:55:46.580Z,4.10
2022-12-05T02:58:22.009Z,4.10
2022-12-05T03:00:55.790Z,4.10
2022-12-05T03:03:26.933Z,4.10
2022-12-05T03:06:05.577Z,4.10
2022-12-05T03:08:58.075Z,4.10
2022-12-05T03:11:29.024Z,4.10
2022-12-05T03:14:00.103Z,4.20
2022-12-05T03:16:49.098Z,4.10
2022-12-05T03:19:29.290Z,4.10
2022-12-05T03:22:38.258Z,4.20
2022-12-05T03:25:05.379Z,4.20
2022-12-05T03:27:53.997Z,4.20
2022-12-05T03:30:23.927Z,4.20
2022-12-05T03:33:12.331Z,4.20
2022-12-05T03:36:03.514Z,4.20
2022-12-05T03:39:07.922Z,4.20
2022-12-05T03:42:04.332Z,4.20
2022-12-05T03:44:44.408Z,4.20
2022-12-05T03:47:32.684Z,4.20
2022-12-05T03:50:28.399Z,4.20
2022-12-05T03:53:25.469Z,4.20
2022-12-05T03:56:05.308Z,4.30
2022-12-05T03:59:06.471Z,4.30
2022-12-05T04:01:39.568Z,4.30
2022-12-05T04:04:21.613Z,4.20
2022-12-05T04:06:52.071Z,4.30
2022-12-05T04:09:26.790Z,4.30
2022-12-05T04:11:59.862Z,4.30
2022-12-05T04:14:35.120Z,4.30
2022-12-05T04:17:13.699Z,4.30
2022-12-05T04:20:20.681Z,4.40
2022-12-05T04:22:51.478Z,4.40
2022-12-05T04:25:34.847Z,4.40
2022-12-05T04:28:39.389Z,4.40
2022-12-05T04:31:25.714Z,4.40
2022-12-05T04:33:57.602Z,4.40
2022-12-05T04:36:36.941Z,4.40
2022-12-05T04:39:52.021Z,4.50
2022-12-05T04:42:23.671Z,4.40
2022-12-05T04:44:55.046Z,4.40
2022-12-05T04:47:27.125Z,4.50
2022-12-05T04:49:58.882Z,4.50
2022-12-05T04:52:29.127Z,4.50
2022-12-05T04:55:06.140Z,4.50
2022-12-05T04:57:54.967Z,4.50
2022-12-05T05:00:25.291Z,4.60
2022-12-05T05:03:21.309Z,4.60
2022-12-05T05:05:52.660Z,4.60
2022-12-05T05:08:29.078Z,4.60
2022-12-05T05:11:18.977Z,4.60
2022-12-05T05:13:49.057Z,4.60
2022-12-05T05:16:30.777Z,4.60
2022-12-05T05:18:58.103Z,4.60
2022-12-05T05:21:30.882Z,4.70
2022-12-05T05:23:58.123Z,4.70
2022-12-05T05:26:27.252Z,4.70
2022-12-05T05:28:54.594Z,4.70
2022-12-05T05:31:21.933Z,4.60
2022-12-05T05:33:51.797Z,4.70
2022-12-05T05:36:20.947Z,4.70
2022-12-05T05:38:53.817Z,4.70
2022-12-05T05:41:25.387Z,4.70
2022-12-05T05:43:56.036Z,4.70
2022-12-05T05:46:29.528Z,4.70
2022-12-05T05:48:58.909Z,4.70
2022-12-05T05:51:30.373Z,4.70
2022-12-05T05:54:00.294Z,4.70
2022-12-05T05:56:33.298Z,4.70
2022-12-05T05:59:03.897Z,4.70
2022-12-05T06:01:33.822Z,4.70
2022-12-05T06:04:02.978Z,4.70
2022-12-05T06:06:31.093Z,4.70
2022-12-05T06:09:00.987Z,4.70
2022-12-05T06:11:30.955Z,4.70
2022-12-05T06:14:02.176Z,4.80
2022-12-05T06:16:32.330Z,4.80
2022-12-05T06:19:02.343Z,4.80
2022-12-05T06:21:30.327Z,4.90
2022-12-05T06:23:57.539Z,4.90
2022-12-05T06:26:24.601Z,4.90
2022-12-05T06:28:54.671Z,4.90
2022-12-05T06:31:27.182Z,4.90
2022-12-05T06:34:00.199Z,5.00
2022-12-05T06:36:30.865Z,4.90
2022-12-05T06:38:58.393Z,4.90
2022-12-05T06:41:28.563Z,5.00
2022-12-05T06:44:01.957Z,5.00
2022-12-05T06:46:32.597Z,5.00
2022-12-05T06:48:59.691Z,5.00
2022-12-05T06:51:29.733Z,5.00
2022-12-05T06:53:58.446Z,5.00
2022-12-05T06:56:29.349Z,5.00
2022-12-05T06:58:59.384Z,5.10
2022-12-05T07:01:42.289Z,5.10
2022-12-05T07:04:25.876Z,5.10
2022-12-05T07:06:56.097Z,5.10
2022-12-05T07:09:49.461Z,5.10
2022-12-05T07:12:19.426Z,5.10
2022-12-05T07:14:49.628Z,5.10
2022-12-05T07:17:20.997Z,5.20
2022-12-05T07:19:52.929Z,5.10
2022-12-05T07:22:22.605Z,5.10
2022-12-05T07:24:53.517Z,5.20
2022-12-05T07:27:26.908Z,5.20
2022-12-05T07:29:58.052Z,5.20
2022-12-05T07:32:25.264Z,5.20
2022-12-05T07:34:55.850Z,5.20
2022-12-05T07:37:25.955Z,5.20
2022-12-05T07:39:56.295Z,5.30
2022-12-05T07:42:26.561Z,5.30
2022-12-05T07:44:55.555Z,5.30
2022-12-05T07:47:22.483Z,5.30
2022-12-05T07:49:50.425Z,5.30
2022-12-05T07:52:20.354Z,5.30
2022-12-05T07:54:50.423Z,5.30
2022-12-05T07:57:23.439Z,5.30
2022-12-05T07:59:50.292Z,5.30
2022-12-05T08:02:20.851Z,5.30
2022-12-05T08:04:47.832Z,5.40
2022-12-05T08:07:14.766Z,5.40
2022-12-05T08:09:42.742Z,5.40
2022-12-05T08:12:10.697Z,5.40
2022-12-05T08:14:39.703Z,5.50
2022-12-05T08:17:09.778Z,5.50
2022-12-05T08:19:36.866Z,5.50
2022-12-05T08:22:04.274Z,5.60
2022-12-05T08:24:31.305Z,5.60
2022-12-05T08:27:05.557Z,5.60
2022-12-05T08:29:33.434Z,5.60
2022-12-05T08:32:04.196Z,5.60
2022-12-05T08:34:32.268Z,5.60
2022-12-05T08:36:59.142Z,5.60
2022-12-05T08:39:27.188Z,5.60
2022-12-05T08:41:55.116Z,5.70
2022-12-05T08:44:25.193Z,5.80
2022-12-05T08:46:52.134Z,5.80
2022-12-05T08:49:21.164Z,5.80
2022-12-05T08:51:49.160Z,5.80
2022-12-05T08:54:19.161Z,5.80
2022-12-05T08:56:52.149Z,5.80
2022-12-05T08:59:21.205Z,5.80
2022-12-05T09:01:51.471Z,5.90
2022-12-05T09:04:21.884Z,5.90
2022-12-05T09:06:48.878Z,5.90
2022-12-05T09:09:16.858Z,5.90
2022-12-05T09:11:49.139Z,5.90
2022-12-05T09:14:19.296Z,6.00
2022-12-05T09:16:48.436Z,6.00
2022-12-05T09:19:21.028Z,6.00
2022-12-05T09:21:48.138Z,6.10
2022-12-05T09:24:17.254Z,6.10
2022-12-05T09:26:46.005Z,6.10
2022-12-05T09:29:17.777Z,6.10
2022-12-05T09:31:48.771Z,6.10
2022-12-05T09:34:18.372Z,6.10
2022-12-05T09:37:01.372Z,6.10
2022-12-05T09:39:37.733Z,6.10
2022-12-05T09:42:48.072Z,6.20
2022-12-05T09:45:38.772Z,6.20
2022-12-05T09:48:23.570Z,6.20
2022-12-05T09:51:03.696Z,6.20
2022-12-05T09:53:38.883Z,6.20
2022-12-05T09:56:20.969Z,6.20
2022-12-05T09:58:50.560Z,6.20
2022-12-05T10:01:26.644Z,6.20
2022-12-05T10:04:17.792Z,6.20
2022-12-05T10:07:22.348Z,6.30
2022-12-05T10:10:07.699Z,6.30
2022-12-05T10:13:06.750Z,6.30
2022-12-05T10:15:45.679Z,6.30
2022-12-05T10:18:40.945Z,6.30
2022-12-05T10:21:19.698Z,6.30
2022-12-05T10:24:03.109Z,6.30
2022-12-05T10:26:40.945Z,6.40
2022-12-05T10:29:57.337Z,6.40
2022-12-05T10:32:56.722Z,6.40
2022-12-05T10:35:40.543Z,6.50
2022-12-05T10:38:28.895Z,6.50
2022-12-05T10:41:05.472Z,6.60
2022-12-05T10:43:37.555Z,6.60
2022-12-05T10:46:09.786Z,6.60
2022-12-05T10:48:42.866Z,6.60
2022-12-05T10:51:17.945Z,6.70
2022-12-05T10:53:51.249Z,6.70
2022-12-05T10:56:43.790Z,6.70
2022-12-05T10:59:47.362Z,6.70
2022-12-05T11:02:38.189Z,6.70
2022-12-05T11:05:08.601Z,6.70
2022-12-05T11:07:51.165Z,6.70
2022-12-05T11:10:26.914Z,6.70
2022-12-05T11:12:58.239Z,6.70
2022-12-05T11:15:28.776Z,6.80
2022-12-05T11:17:57.707Z,6.80
2022-12-05T11:20:36.837Z,6.80
2022-12-05T11:23:21.923Z,6.90
2022-12-05T11:25:51.309Z,6.90
2022-12-05T11:28:22.036Z,6.90
2022-12-05T11:31:27.017Z,6.90
2022-12-05T11:34:12.726Z,6.90
2022-12-05T11:36:50.802Z,6.90
2022-12-05T11:39:17.685Z,6.90
2022-12-05T11:42:03.471Z,6.90
2022-12-05T11:45:08.866Z,6.90
2022-12-05T11:48:18.213Z,6.90
2022-12-05T11:51:09.059Z,6.90
2022-12-05T11:53:36.006Z,6.90
2022-12-05T11:56:47.528Z,6.90
2022-12-05T11:59:52.081Z,6.90
2022-12-05T12:02:41.031Z,6.90
2022-12-05T12:05:26.227Z,6.90
2022-12-05T12:08:23.012Z,6.90
2022-12-05T12:11:26.914Z,6.90
2022-12-05T12:14:13.398Z,6.90
2022-12-05T12:17:16.543Z,6.90
2022-12-05T12:20:20.695Z,6.90
2022-12-05T12:23:09.419Z,6.90
2022-12-05T12:25:57.777Z,6.90
2022-12-05T12:28:47.109Z,6.90
2022-12-05T12:31:33.668Z,6.90
2022-12-05T12:34:25.973Z,6.90
2022-12-05T12:37:05.635Z,6.90
2022-12-05T12:39:32.650Z,6.90
2022-12-05T12:42:13.589Z,6.90
2022-12-05T12:45:26.742Z,6.90
2022-12-05T12:48:01.016Z,7.00
2022-12-05T12:50:33.104Z,7.00
2022-12-05T12:53:30.953Z,7.00
2022-12-05T12:56:23.268Z,7.00
2022-12-05T12:59:37.767Z,7.00
2022-12-05T13:02:13.374Z,7.00
2022-12-05T13:04:58.591Z,7.10
2022-12-05T13:07:45.785Z,7.10
2022-12-05T13:10:23.988Z,7.10
2022-12-05T13:12:55.435Z,7.10
2022-12-05T13:15:42.303Z,7.10
2022-12-05T13:18:16.977Z,7.10
2022-12-05T13:20:49.407Z,7.10
2022-12-05T13:23:20.100Z,7.10
2022-12-05T13:25:52.651Z,7.10
2022-12-05T13:28:55.976Z,7.10
2022-12-05T13:31:44.876Z,7.10
2022-12-05T13:34:27.447Z,7.10
2022-12-05T13:37:13.252Z,7.10
2022-12-05T13:39:59.315Z,7.10
2022-12-05T13:42:30.478Z,7.10
2022-12-05T13:45:05.277Z,7.10
2022-12-05T13:47:37.159Z,7.10
2022-12-05T13:50:15.461Z,7.20
2022-12-05T13:52:52.582Z,7.20
2022-12-05T13:55:35.898Z,7.20
2022-12-05T13:58:24.489Z,7.20
2022-12-05T14:01:26.799Z,7.20
2022-12-05T14:04:02.370Z,7.20
2022-12-05T14:06:38.193Z,7.20
2022-12-05T14:09:20.841Z,7.20
2022-12-05T14:12:15.842Z,7.20
2022-12-05T14:14:58.194Z,7.20
2022-12-05T14:17:30.802Z,7.20
2022-12-05T14:20:28.657Z,7.20
2022-12-05T14:23:31.940Z,7.20
2022-12-05T14:26:08.740Z,7.30
2022-12-05T14:28:44.828Z,7.30
2022-12-05T14:31:39.604Z,7.30
2022-12-05T14:34:27.656Z,7.40
2022-12-05T14:37:18.825Z,7.40
2022-12-05T14:39:53.027Z,7.40
2022-12-05T14:42:42.185Z,7.40
2022-12-05T14:45:40.669Z,7.40
2022-12-05T14:48:29.235Z,7.40
2022-12-05T14:51:00.885Z,7.40
2022-12-05T14:53:40.772Z,7.30
2022-12-05T14:56:24.003Z,7.30
2022-12-05T14:59:04.666Z,7.30
2022-12-05T15:01:48.846Z,7.30
2022-12-05T15:04:42.419Z,7.30
2022-12-05T15:07:23.129Z,7.30
2022-12-05T15:10:23.243Z,7.30
2022-12-05T15:13:00.895Z,7.30
2022-12-05T15:15:40.266Z,7.20
2022-12-05T15:18:25.166Z,7.20
2022-12-05T15:21:11.979Z,7.20
2022-12-05T15:23:57.755Z,7.20
2022-12-05T15:26:49.452Z,7.20
2022-12-05T15:29:32.792Z,7.20
2022-12-05T15:32:06.464Z,7.20
2022-12-05T15:34:47.416Z,7.20
2022-12-05T15:37:25.390Z,7.20
2022-12-05T15:40:01.779Z,7.10
2022-12-05T15:42:34.779Z,7.10
2022-12-05T15:45:14.623Z,7.10
2022-12-05T15:47:51.002Z,7.10
2022-12-05T15:50:31.525Z,7.10
2022-12-05T15:53:06.463Z,7.10
2022-12-05T15:55:46.455Z,7.10
2022-12-05T15:58:46.615Z,7.20
2022-12-05T16:01:23.035Z,7.20
2022-12-05T16:04:29.590Z,7.20
2022-12-05T16:07:05.420Z,7.20
2022-12-05T16:09:41.374Z,7.20
2022-12-05T16:12:31.322Z,7.20
2022-12-05T16:15:03.489Z,7.30
2022-12-05T16:17:45.609Z,7.20
2022-12-05T16:20:31.053Z,7.20
2022-12-05T16:23:22.626Z,7.30
2022-12-05T16:26:17.472Z,7.30
2022-12-05T16:29:00.438Z,7.30
2022-12-05T16:31:29.084Z,7.20
2022-12-05T16:34:07.902Z,7.20
2022-12-05T16:36:46.914Z,7.20
2022-12-05T16:39:19.650Z,7.20
2022-12-05T16:41:50.618Z,7.20
2022-12-05T16:44:46.709Z,7.20
2022-12-05T16:47:25.169Z,7.20
2022-12-05T16:49:52.220Z,7.20
2022-12-05T16:52:22.253Z,7.20
2022-12-05T16:54:50.506Z,7.20
2022-12-05T16:57:18.700Z,7.30
2022-12-05T16:59:49.547Z,7.30
2022-12-05T17:02:19.124Z,7.30
2022-12-05T17:04:52.986Z,7.30
2022-12-05T17:07:20.978Z,7.30
2022-12-05T17:09:51.026Z,7.30
2022-12-05T17:12:23.873Z,7.30
2022-12-05T17:14:50.955Z,7.30
2022-12-05T17:17:19.064Z,7.30
2022-12-05T17:19:47.183Z,7.30
2022-12-05T17:22:16.086Z,7.30
2022-12-05T17:24:43.413Z,7.30
2022-12-05T17:27:12.265Z,7.30
2022-12-05T17:29:40.316Z,7.40
2022-12-05T17:32:07.401Z,7.40
2022-12-05T17:34:34.498Z,7.40
2022-12-05T17:37:03.691Z,7.40
2022-12-05T17:39:32.647Z,7.40
2022-12-05T17:42:01.613Z,7.40
2022-12-05T17:44:28.702Z,7.40
2022-12-05T17:46:57.027Z,7.40
2022-12-05T17:49:24.707Z,7.40
2022-12-05T17:54:44.785Z,7.40
2022-12-05T17:57:14.863Z,7.40
2022-12-05T17:59:42.984Z,7.40
2022-12-05T18:02:11.826Z,7.40
2022-12-05T18:04:38.829Z,7.40
2022-12-05T18:07:07.731Z,7.40
2022-12-05T18:09:37.799Z,7.40
2022-12-05T18:12:05.142Z,7.40
2022-12-05T18:14:36.119Z,7.30
2022-12-05T18:17:04.607Z,7.30
2022-12-05T18:19:31.650Z,7.40
2022-12-05T18:21:58.675Z,7.40
2022-12-05T18:24:25.657Z,7.40
2022-12-05T18:26:56.018Z,7.40
2022-12-05T18:29:26.187Z,7.40
2022-12-05T18:31:53.570Z,7.40
2022-12-05T18:34:21.599Z,7.40
2022-12-05T18:36:51.805Z,7.40
2022-12-05T18:39:22.317Z,7.40
2022-12-05T18:41:50.485Z,7.40
2022-12-05T18:44:20.479Z,7.40
2022-12-05T18:46:50.545Z,7.40
2022-12-05T18:49:17.643Z,7.40
2022-12-05T18:51:47.661Z,7.40
2022-12-05T18:54:18.211Z,7.40
2022-12-05T18:56:50.343Z,7.40
2022-12-05T18:59:19.831Z,7.40
2022-12-05T19:01:50.564Z,7.40
2022-12-05T19:04:21.657Z,7.30
2022-12-05T19:06:52.065Z,7.40
2022-12-05T19:09:21.815Z,7.30
2022-12-05T19:11:52.212Z,7.30
2022-12-05T19:14:22.816Z,7.30
2022-12-05T19:16:59.781Z,7.30
2022-12-05T19:19:28.211Z,7.30
2022-12-05T19:21:58.951Z,7.40
2022-12-05T19:24:26.964Z,7.40
2022-12-05T19:26:56.944Z,7.40
2022-12-05T19:29:23.908Z,7.40
2022-12-05T19:31:50.971Z,7.50
2022-12-05T19:34:18.054Z,7.50
2022-12-05T19:36:46.333Z,7.50
2022-12-05T19:39:23.653Z,7.50
2022-12-05T19:41:50.939Z,7.50
2022-12-05T19:44:18.286Z,7.50
2022-12-05T19:46:49.043Z,7.50
2022-12-05T19:49:19.251Z,7.50
2022-12-05T19:51:49.664Z,7.60
2022-12-05T19:54:22.191Z,7.60
2022-12-05T19:56:58.449Z,7.60
2022-12-05T19:59:28.495Z,7.60
2022-12-05T20:01:58.798Z,7.60
2022-12-05T20:04:28.861Z,7.60
2022-12-05T20:06:56.816Z,7.60
2022-12-05T20:09:24.842Z,7.60
2022-12-05T20:11:55.587Z,7.70
2022-12-05T20:14:26.141Z,7.60
2022-12-05T20:16:56.380Z,7.70
2022-12-05T20:19:23.876Z,7.70
2022-12-05T20:21:50.764Z,7.70
2022-12-05T20:24:17.593Z,7.70
2022-12-05T20:26:45.663Z,7.70
2022-12-05T20:29:12.954Z,7.70
2022-12-05T20:31:41.746Z,7.70
2022-12-05T20:34:11.940Z,7.70
2022-12-05T20:36:38.959Z,7.70
2022-12-05T20:39:13.130Z,7.70
2022-12-05T20:41:40.071Z,7.70
2022-12-05T20:44:08.610Z,7.70
2022-12-05T20:46:36.990Z,7.80
2022-12-05T20:49:04.118Z,7.80
2022-12-05T20:51:33.823Z,7.80
2022-12-05T20:54:03.102Z,7.80
2022-12-05T20:56:33.377Z,7.80
2022-12-05T20:59:03.488Z,7.80
2022-12-05T21:01:33.250Z,7.80
2022-12-05T21:04:00.868Z,7.80
2022-12-05T21:06:30.784Z,7.80
2022-12-05T21:08:58.586Z,7.90
2022-12-05T21:11:26.648Z,7.90
2022-12-05T21:13:56.406Z,7.90
2022-12-05T21:16:24.294Z,7.90
2022-12-05T21:18:52.210Z,7.90
2022-12-05T21:21:24.752Z,7.90
2022-12-05T21:24:01.039Z,7.90
2022-12-05T21:26:33.557Z,7.90
2022-12-05T21:29:01.732Z,7.90
2022-12-05T21:31:34.629Z,7.80
2022-12-05T21:34:06.030Z,7.80
2022-12-05T21:36:36.243Z,7.80
2022-12-05T21:39:05.768Z,7.80
2022-12-05T21:41:33.056Z,7.80
2022-12-05T21:44:01.555Z,7.80
2022-12-05T21:46:28.763Z,7.80
2022-12-05T21:48:55.917Z,7.80
2022-12-05T21:51:23.902Z,7.80
2022-12-05T21:53:51.612Z,7.80
2022-12-05T21:56:25.622Z,7.80
2022-12-05T21:58:52.920Z,7.70
2022-12-05T22:01:23.498Z,7.70
2022-12-05T22:03:56.165Z,7.70
2022-12-05T22:06:23.284Z,7.70
2022-12-05T22:08:50.282Z,7.70
2022-12-05T22:11:20.116Z,7.70
2022-12-05T22:13:48.950Z,7.70
2022-12-05T22:16:16.911Z,7.70
2022-12-05T22:18:44.436Z,7.70
2022-12-05T22:21:17.498Z,7.70
2022-12-05T22:23:44.419Z,7.70
2022-12-05T22:26:13.968Z,7.70
2022-12-05T22:28:41.301Z,7.70
2022-12-05T22:31:10.741Z,7.70
2022-12-05T22:33:38.049Z,7.80
2022-12-05T22:36:07.685Z,7.80
2022-12-05T22:38:37.120Z,7.80
2022-12-05T22:41:09.498Z,7.80
2022-12-05T22:43:37.891Z,7.80
2022-12-05T22:46:10.903Z,7.80
2022-12-05T22:48:38.120Z,7.80
2022-12-05T22:51:07.033Z,7.80
2022-12-05T22:53:34.629Z,7.80
2022-12-05T22:56:04.397Z,7.70
2022-12-05T22:58:31.482Z,7.70
2022-12-05T23:00:58.730Z,7.80
2022-12-05T23:03:25.874Z,7.80
2022-12-05T23:05:53.058Z,7.80
2022-12-05T23:08:20.085Z,7.80
2022-12-05T23:10:47.075Z,7.80
2022-12-05T23:13:14.078Z,7.80
2022-12-05T23:15:41.100Z,7.80
2022-12-05T23:18:08.751Z,7.80
2022-12-05T23:20:35.728Z,7.80
2022-12-05T23:23:02.765Z,7.90
2022-12-05T23:25:29.718Z,7.90
2022-12-05T23:27:56.751Z,7.90
2022-12-05T23:30:23.713Z,7.90
2022-12-05T23:32:50.763Z,7.90
2022-12-05T23:35:17.773Z,7.90
2022-12-05T23:37:44.766Z,7.90
2022-12-05T23:40:11.927Z,7.90
2022-12-05T23:42:39.087Z,7.90
2022-12-05T23:45:06.830Z,7.90
2022-12-05T23:47:33.875Z,7.90
2022-12-05T23:50:01.382Z,7.90
2022-12-05T23:52:28.670Z,7.90
2022-12-05T23:54:57.623Z,7.90
2022-12-05T23:57:24.769Z,7.90
2022-12-05T23:59:51.745Z,7.90
